createdAt,value
2018-07-02T06:32:16.229Z,71.30
2018-07-02T06:34:46.074Z,29.30
2018-07-02T16:47:59.186Z,28.90
2018-07-02T16:50:35.221Z,28.60
2018-07-02T16:53:12.163Z,28.20
2018-07-02T16:55:41.617Z,28.40
2018-07-02T16:59:43.067Z,28.30
2018-07-02T17:02:12.316Z,28.60
2018-07-02T17:04:41.463Z,28.60
2018-07-02T17:07:11.769Z,28.70
2018-07-02T17:09:40.862Z,28.60
2018-07-02T17:12:11.747Z,28.30
2018-07-02T17:14:45.314Z,28.70
2018-07-02T17:17:15.119Z,29.00
2018-07-02T17:19:45.682Z,28.80
2018-07-02T17:22:18.192Z,29.40
2018-07-02T17:24:51.611Z,28.90
2018-07-02T17:27:24.063Z,29.00
2018-07-02T17:29:57.105Z,29.20
2018-07-02T17:32:36.152Z,29.40
2018-07-02T17:35:14.519Z,29.30
2018-07-02T17:58:56.833Z,28.90
2018-07-02T18:01:32.095Z,29.10
2018-07-02T18:04:07.328Z,29.80
2018-07-02T18:24:47.222Z,30.80
2018-07-02T18:27:25.059Z,31.10
2018-07-02T18:30:04.185Z,31.70
2018-07-02T18:32:45.945Z,31.90
2018-07-02T18:38:37.660Z,31.80
2018-07-02T18:41:13.009Z,31.80
2018-07-02T18:43:58.620Z,32.60
2018-07-02T18:46:29.904Z,32.50
2018-07-02T18:49:08.275Z,32.40
2018-07-02T18:52:00.685Z,32.30
2018-07-02T18:54:30.085Z,32.50
2018-07-02T20:02:03.507Z,37.00
2018-07-02T20:04:51.172Z,37.20
2018-07-02T21:08:28.845Z,38.20
2018-07-02T21:11:04.088Z,38.10
2018-07-02T21:13:48.999Z,38.30
2018-07-02T21:16:30.967Z,39.30
2018-07-02T21:19:49.727Z,39.10
2018-07-02T21:22:43.633Z,39.60
2018-07-02T21:29:03.299Z,39.60
2018-07-02T21:31:39.038Z,39.70
2018-07-02T21:34:24.625Z,39.90
2018-07-02T21:37:12.427Z,40.40
2018-07-02T22:47:07.705Z,39.40
2018-07-02T22:55:35.486Z,39.10
2018-07-02T22:58:29.299Z,39.00
2018-07-02T23:01:21.290Z,39.30
2018-07-02T23:04:05.963Z,39.80
2018-07-02T23:06:51.453Z,39.90
2018-07-02T23:09:42.701Z,40.40
2018-07-02T23:23:53.694Z,40.80
2018-07-02T23:41:06.118Z,41.20
2018-07-02T23:43:40.613Z,41.20
